createdAt,value
2018-04-19T00:01:19.170Z,3.00
2018-04-19T00:02:19.044Z,1.00
2018-04-19T00:03:19.046Z,2.00
2018-04-19T00:04:22.030Z,1.00
2018-04-19T00:05:58.839Z,1.00
2018-04-19T00:06:58.911Z,0.00
2018-04-19T00:07:58.912Z,0.00
2018-04-19T00:08:58.942Z,0.00
2018-04-19T00:09:58.924Z,0.00
2018-04-19T00:10:58.897Z,0.00
2018-04-19T00:11:58.893Z,0.00
2018-04-19T00:12:58.866Z,0.00
2018-04-19T00:13:58.854Z,0.00
2018-04-19T00:14:58.948Z,0.00
2018-04-19T00:15:58.931Z,0.00
2018-04-19T00:16:58.897Z,0.00
2018-04-19T00:17:59.134Z,0.00
2018-04-19T00:18:58.909Z,1.00
2018-04-19T00:19:58.892Z,1.00
2018-04-19T00:20:58.891Z,1.00
2018-04-19T00:21:58.922Z,3.00
2018-04-19T00:22:58.910Z,5.00
2018-04-19T00:23:58.901Z,5.00
2018-04-19T00:24:58.879Z,5.00
2018-04-19T00:25:58.853Z,4.00
2018-04-19T00:26:58.938Z,1.00
2018-04-19T00:27:58.938Z,3.00
2018-04-19T00:28:58.909Z,2.00
2018-04-19T00:29:58.893Z,0.00
2018-04-19T00:30:58.922Z,0.00
2018-04-19T00:31:58.912Z,0.00
2018-04-19T00:32:58.882Z,0.00
2018-04-19T00:33:58.862Z,0.00
2018-04-19T00:35:02.071Z,0.00
2018-04-19T00:36:02.012Z,0.00
2018-04-19T00:37:01.892Z,0.00
2018-04-19T00:37:58.886Z,0.00
2018-04-19T00:39:01.954Z,0.00
2018-04-19T00:40:01.936Z,0.00
2018-04-19T00:41:01.918Z,0.00
2018-04-19T00:42:29.649Z,0.00
2018-04-19T00:43:00.768Z,0.00
2018-04-19T00:44:00.768Z,0.00
2018-04-19T00:45:03.783Z,0.00
2018-04-19T00:46:22.565Z,0.00
2018-04-19T00:46:59.618Z,0.00
2018-04-19T00:47:59.614Z,3.00
2018-04-19T00:48:59.622Z,4.00
2018-04-19T00:49:59.615Z,2.00
2018-04-19T00:50:59.603Z,2.00
2018-04-19T00:52:02.788Z,1.00
2018-04-19T00:53:02.817Z,6.00
2018-04-19T00:53:59.669Z,9.00
2018-04-19T00:54:59.659Z,8.00
2018-04-19T00:55:59.654Z,10.00
2018-04-19T00:56:59.686Z,4.00
2018-04-19T00:57:59.685Z,6.00
2018-04-19T00:58:59.675Z,4.00
2018-04-19T00:59:59.658Z,5.00
2018-04-19T01:00:59.634Z,4.00
2018-04-19T01:01:59.606Z,4.00
2018-04-19T01:02:59.863Z,2.00
2018-04-19T01:03:59.643Z,6.00
2018-04-19T01:04:57.325Z,1.00
2018-04-19T01:06:21.408Z,0.00
2018-04-19T01:07:02.844Z,0.00
2018-04-19T01:07:59.622Z,1.00
2018-04-19T01:08:59.597Z,3.00
2018-04-19T01:09:59.687Z,1.00
2018-04-19T01:10:59.677Z,2.00
2018-04-19T01:11:59.656Z,5.00
2018-04-19T01:12:59.790Z,7.00
2018-04-19T01:13:59.838Z,7.00
2018-04-19T01:14:59.624Z,6.00
2018-04-19T01:15:59.639Z,7.00
2018-04-19T01:16:59.632Z,5.00
2018-04-19T01:17:59.623Z,3.00
2018-04-19T01:18:59.698Z,1.00
2018-04-19T01:19:59.681Z,6.00
2018-04-19T01:20:59.654Z,1.00
2018-04-19T01:21:59.894Z,2.00
2018-04-19T01:22:59.677Z,1.00
2018-04-19T01:23:59.662Z,2.00
2018-04-19T01:24:59.639Z,4.00
2018-04-19T01:25:59.634Z,3.00
2018-04-19T01:26:59.621Z,3.00
2018-04-19T01:27:59.695Z,4.00
2018-04-19T01:28:59.679Z,3.00
2018-04-19T01:29:59.650Z,6.00
2018-04-19T01:30:59.646Z,3.00
2018-04-19T01:31:59.777Z,3.00
2018-04-19T01:32:59.651Z,2.00
2018-04-19T01:33:59.650Z,5.00
2018-04-19T01:34:59.640Z,4.00
2018-04-19T01:35:59.609Z,3.00
2018-04-19T01:37:35.636Z,4.00
2018-04-19T01:38:35.513Z,3.00
2018-04-19T01:39:35.515Z,5.00
2018-04-19T01:40:35.494Z,0.00
2018-04-19T01:41:35.482Z,3.00
2018-04-19T01:42:35.659Z,1.00
2018-04-19T01:43:35.683Z,3.00
2018-04-19T01:44:35.563Z,0.00
2018-04-19T01:45:38.703Z,0.00
2018-04-19T01:46:35.483Z,1.00
2018-04-19T01:47:35.614Z,1.00
2018-04-19T01:48:35.485Z,1.00
2018-04-19T01:49:35.650Z,5.00
2018-04-19T01:50:35.625Z,7.00
2018-04-19T01:51:35.535Z,5.00
2018-04-19T01:52:35.509Z,9.00
2018-04-19T01:53:35.559Z,8.00
2018-04-19T01:54:35.528Z,12.00
2018-04-19T01:55:35.528Z,2.00
2018-04-19T01:56:35.651Z,3.00
2018-04-19T01:57:35.542Z,6.00
2018-04-19T01:58:35.646Z,9.00
2018-04-19T01:59:35.545Z,10.00
2018-04-19T02:00:35.513Z,8.00
2018-04-19T02:01:35.502Z,7.00
2018-04-19T02:02:38.478Z,9.00
2018-04-19T02:03:35.560Z,3.00
2018-04-19T02:04:35.551Z,2.00
2018-04-19T02:05:35.650Z,2.00
2018-04-19T02:06:35.538Z,1.00
2018-04-19T02:07:35.527Z,0.00
2018-04-19T02:08:35.517Z,0.00
2018-04-19T02:09:35.500Z,1.00
2018-04-19T02:10:35.689Z,0.00
2018-04-19T02:11:38.570Z,0.00
2018-04-19T02:12:38.709Z,1.00
2018-04-19T02:13:35.479Z,0.00
2018-04-19T02:14:35.568Z,0.00
2018-04-19T02:15:35.660Z,0.00
2018-04-19T02:16:35.569Z,0.00
2018-04-19T02:17:35.547Z,0.00
2018-04-19T02:18:35.529Z,0.00
2018-04-19T02:19:35.504Z,0.00
2018-04-19T02:20:35.506Z,2.00
2018-04-19T02:21:37.360Z,2.00
2018-04-19T02:22:35.543Z,3.00
2018-04-19T02:23:35.651Z,0.00
2018-04-19T02:24:35.553Z,0.00
2018-04-19T02:25:35.539Z,1.00
2018-04-19T02:26:35.602Z,1.00
2018-04-19T02:27:35.674Z,0.00
2018-04-19T02:28:35.563Z,0.00
2018-04-19T02:29:35.566Z,0.00
2018-04-19T02:30:35.535Z,0.00
2018-04-19T02:31:38.503Z,0.00
2018-04-19T02:32:35.584Z,0.00
2018-04-19T02:33:38.578Z,0.00
2018-04-19T02:34:38.657Z,0.00
2018-04-19T02:35:35.686Z,0.00
2018-04-19T02:36:36.762Z,0.00
2018-04-19T02:37:35.558Z,0.00
2018-04-19T02:38:35.638Z,0.00
2018-04-19T02:39:57.087Z,0.00
2018-04-19T02:40:35.581Z,0.00
2018-04-19T02:41:35.698Z,0.00
2018-04-19T02:42:35.802Z,0.00
2018-04-19T02:43:35.587Z,0.00
2018-04-19T02:44:35.578Z,0.00
2018-04-19T02:45:35.681Z,0.00
2018-04-19T02:46:35.835Z,0.00
2018-04-19T02:47:35.530Z,0.00
2018-04-19T02:48:35.681Z,0.00
2018-04-19T02:49:35.563Z,0.00
2018-04-19T02:50:35.564Z,0.00
2018-04-19T02:51:35.539Z,0.00
2018-04-19T02:52:35.528Z,0.00
2018-04-19T02:53:35.641Z,0.00
2018-04-19T02:54:35.570Z,0.00
2018-04-19T02:55:35.558Z,2.00
2018-04-19T02:56:35.563Z,2.00
2018-04-19T02:57:35.534Z,0.00
2018-04-19T02:58:38.660Z,0.00
2018-04-19T03:00:06.409Z,0.00
2018-04-19T03:00:37.311Z,0.00
2018-04-19T03:01:37.426Z,0.00
2018-04-19T03:02:37.328Z,0.00
2018-04-19T03:03:37.330Z,0.00
2018-04-19T03:04:37.366Z,1.00
2018-04-19T03:05:37.286Z,0.00
2018-04-19T03:06:37.324Z,0.00
2018-04-19T03:07:58.939Z,0.00
2018-04-19T03:08:36.211Z,0.00
2018-04-19T03:09:36.206Z,4.00
2018-04-19T03:10:36.183Z,2.00
2018-04-19T03:11:36.305Z,0.00
2018-04-19T03:12:36.202Z,0.00
2018-04-19T03:13:36.206Z,0.00
2018-04-19T03:14:36.202Z,0.00
2018-04-19T03:15:36.214Z,0.00
2018-04-19T03:16:46.720Z,2.00
2018-04-19T03:17:37.371Z,0.00
2018-04-19T03:18:37.427Z,0.00
2018-04-19T03:19:37.321Z,0.00
2018-04-19T03:20:58.874Z,0.00
2018-04-19T03:21:36.290Z,0.00
2018-04-19T03:22:36.173Z,0.00
2018-04-19T03:23:36.267Z,0.00
2018-04-19T03:24:36.234Z,0.00
2018-04-19T03:25:36.218Z,0.00
2018-04-19T03:26:36.207Z,0.00
2018-04-19T03:27:36.198Z,0.00
2018-04-19T03:28:36.269Z,0.00
2018-04-19T03:29:36.245Z,0.00
2018-04-19T03:30:36.231Z,0.00
2018-04-19T03:31:36.235Z,0.00
2018-04-19T03:32:36.234Z,0.00
2018-04-19T03:33:36.212Z,0.00
2018-04-19T03:34:36.191Z,0.00
2018-04-19T03:35:36.277Z,0.00
2018-04-19T03:36:35.235Z,0.00
2018-04-19T03:37:36.201Z,0.00
2018-04-19T03:38:36.268Z,0.00
2018-04-19T03:39:36.263Z,0.00
2018-04-19T03:40:36.238Z,0.00
2018-04-19T03:41:36.227Z,0.00
2018-04-19T03:42:36.194Z,0.00
2018-04-19T03:43:36.266Z,0.00
2018-04-19T03:44:36.359Z,0.00
2018-04-19T03:45:36.238Z,0.00
2018-04-19T03:46:36.234Z,0.00
2018-04-19T03:47:36.216Z,0.00
2018-04-19T03:48:36.274Z,0.00
2018-04-19T03:49:36.255Z,0.00
2018-04-19T03:50:36.243Z,0.00
2018-04-19T03:51:36.209Z,0.00
2018-04-19T03:52:36.291Z,0.00
2018-04-19T03:53:36.383Z,0.00
2018-04-19T03:54:36.263Z,0.00
2018-04-19T03:55:36.263Z,0.00
2018-04-19T03:56:36.259Z,0.00
2018-04-19T03:57:36.240Z,0.00
2018-04-19T03:58:36.227Z,0.00
2018-04-19T03:59:36.235Z,0.00
2018-04-19T04:00:36.235Z,0.00
2018-04-19T04:01:39.386Z,0.00
2018-04-19T04:02:36.426Z,0.00
2018-04-19T04:03:39.284Z,0.00
2018-04-19T04:04:39.304Z,0.00
2018-04-19T04:05:39.392Z,0.00
2018-04-19T04:06:36.283Z,0.00
2018-04-19T04:07:36.283Z,0.00
2018-04-19T04:08:36.264Z,0.00
2018-04-19T04:09:36.241Z,0.00
2018-04-19T04:10:36.231Z,0.00
2018-04-19T04:11:36.208Z,0.00
2018-04-19T04:12:36.287Z,0.00
2018-04-19T04:13:36.257Z,0.00
2018-04-19T04:14:36.246Z,0.00
2018-04-19T04:15:39.223Z,0.00
2018-04-19T04:16:36.215Z,0.00
2018-04-19T04:17:36.301Z,0.00
2018-04-19T04:18:36.274Z,0.00
2018-04-19T04:19:36.254Z,0.00
2018-04-19T04:20:36.238Z,0.00
2018-04-19T04:21:36.209Z,0.00
2018-04-19T04:22:39.348Z,2.00
2018-04-19T04:23:36.273Z,2.00
2018-04-19T04:24:36.265Z,1.00
2018-04-19T04:25:39.049Z,0.00
2018-04-19T04:26:36.509Z,0.00
2018-04-19T04:27:36.316Z,0.00
2018-04-19T04:28:36.310Z,0.00
2018-04-19T04:29:36.295Z,0.00
2018-04-19T04:30:36.347Z,0.00
2018-04-19T04:31:36.228Z,0.00
2018-04-19T04:32:36.303Z,0.00
2018-04-19T04:33:36.323Z,0.00
2018-04-19T04:34:41.279Z,0.00
2018-04-19T04:35:36.507Z,0.00
2018-04-19T04:36:34.545Z,0.00
2018-04-19T04:37:47.169Z,0.00
2018-04-19T04:38:37.352Z,0.00
2018-04-19T04:40:50.279Z,0.00
2018-04-19T04:41:50.328Z,0.00
2018-04-19T04:42:50.236Z,0.00
2018-04-19T04:43:50.254Z,1.00
2018-04-19T04:44:50.250Z,0.00
2018-04-19T04:45:50.273Z,0.00
2018-04-19T04:46:50.251Z,0.00
2018-04-19T04:47:50.359Z,2.00
2018-04-19T04:48:50.446Z,2.00
2018-04-19T04:49:50.216Z,1.00
2018-04-19T04:50:50.218Z,0.00
2018-04-19T04:51:50.211Z,1.00
2018-04-19T04:52:50.330Z,1.00
2018-04-19T04:53:50.229Z,1.00
2018-04-19T04:54:50.334Z,0.00
2018-04-19T04:55:50.249Z,0.00
2018-04-19T04:56:50.286Z,1.00
2018-04-19T04:57:50.273Z,0.00
2018-04-19T04:58:50.242Z,1.00
2018-04-19T04:59:50.238Z,1.00
2018-04-19T05:00:50.263Z,0.00
2018-04-19T05:01:50.259Z,0.00
2018-04-19T05:02:50.426Z,0.00
2018-04-19T05:03:50.487Z,1.00
2018-04-19T05:04:50.278Z,0.00
2018-04-19T05:05:50.259Z,2.00
2018-04-19T05:06:50.246Z,1.00
2018-04-19T05:07:50.233Z,1.00
2018-04-19T05:08:50.243Z,1.00
2018-04-19T05:09:50.394Z,2.00
2018-04-19T05:10:50.272Z,1.00
2018-04-19T05:11:50.274Z,0.00
2018-04-19T05:12:50.427Z,2.00
2018-04-19T05:13:50.200Z,6.00
2018-04-19T05:14:50.197Z,1.00
2018-04-19T05:15:50.198Z,2.00
2018-04-19T05:16:50.306Z,1.00
2018-04-19T05:17:50.307Z,1.00
2018-04-19T05:18:50.202Z,2.00
2018-04-19T05:19:50.255Z,2.00
2018-04-19T05:20:50.259Z,1.00
2018-04-19T05:21:50.242Z,1.00
2018-04-19T05:22:50.266Z,2.00
2018-04-19T05:23:50.250Z,0.00
2018-04-19T05:24:50.230Z,0.00
2018-04-19T05:25:50.218Z,1.00
2018-04-19T05:26:50.199Z,1.00
2018-04-19T05:27:50.337Z,2.00
2018-04-19T05:28:50.222Z,2.00
2018-04-19T05:29:50.210Z,1.00
2018-04-19T05:30:50.202Z,1.00
2018-04-19T05:31:50.213Z,2.00
2018-04-19T05:32:53.346Z,0.00
2018-04-19T05:33:50.429Z,3.00
2018-04-19T05:34:50.286Z,2.00
2018-04-19T05:35:54.477Z,1.00
2018-04-19T05:38:07.312Z,1.00
2018-04-19T05:39:07.395Z,3.00
2018-04-19T05:40:10.546Z,2.00
2018-04-19T05:41:07.543Z,2.00
2018-04-19T05:42:07.322Z,1.00
2018-04-19T05:43:07.408Z,3.00
2018-04-19T05:44:07.393Z,1.00
2018-04-19T05:45:07.378Z,3.00
2018-04-19T05:46:07.350Z,2.00
2018-04-19T05:47:07.331Z,3.00
2018-04-19T05:48:07.325Z,6.00
2018-04-19T05:50:20.108Z,7.00
2018-04-19T05:51:20.090Z,4.00
2018-04-19T05:52:20.079Z,4.00
2018-04-19T05:53:20.161Z,2.00
2018-04-19T05:54:20.141Z,4.00
2018-04-19T05:55:20.121Z,4.00
2018-04-19T05:56:23.102Z,4.00
2018-04-19T05:57:20.094Z,3.00
2018-04-19T05:58:20.238Z,5.00
2018-04-19T05:59:20.116Z,4.00
2018-04-19T06:00:20.212Z,2.00
2018-04-19T06:01:20.102Z,2.00
2018-04-19T06:02:23.026Z,2.00
2018-04-19T06:03:23.100Z,4.00
2018-04-19T06:04:23.191Z,3.00
2018-04-19T06:05:20.426Z,3.00
2018-04-19T06:06:20.201Z,3.00
2018-04-19T06:07:20.086Z,3.00
2018-04-19T06:08:20.101Z,1.00
2018-04-19T06:09:24.098Z,2.00
2018-04-19T06:10:21.191Z,1.00
2018-04-19T06:11:21.299Z,1.00
2018-04-19T06:12:21.242Z,1.00
2018-04-19T06:13:21.228Z,5.00
2018-04-19T06:14:21.229Z,2.00
2018-04-19T06:15:21.221Z,4.00
2018-04-19T06:16:21.208Z,5.00
2018-04-19T06:17:21.202Z,16.00
2018-04-19T06:18:42.861Z,6.00
2018-04-19T06:19:20.179Z,5.00
2018-04-19T06:20:20.154Z,5.00
2018-04-19T06:21:20.134Z,2.00
2018-04-19T06:22:23.093Z,2.00
2018-04-19T06:23:20.190Z,0.00
2018-04-19T06:24:20.250Z,0.00
2018-04-19T06:25:20.125Z,1.00
2018-04-19T06:26:20.110Z,3.00
2018-04-19T06:27:20.098Z,3.00
2018-04-19T06:28:20.179Z,1.00
2018-04-19T06:29:20.153Z,1.00
2018-04-19T06:30:20.262Z,1.00
2018-04-19T06:31:20.138Z,1.00
2018-04-19T06:32:20.124Z,1.00
2018-04-19T06:33:20.101Z,0.00
2018-04-19T06:34:23.249Z,1.00
2018-04-19T06:35:30.502Z,1.00
2018-04-19T06:36:21.211Z,0.00
2018-04-19T06:37:21.236Z,0.00
2018-04-19T06:38:21.248Z,0.00
2018-04-19T06:39:21.274Z,1.00
2018-04-19T06:40:21.271Z,3.00
2018-04-19T06:41:21.300Z,4.00
2018-04-19T06:42:43.104Z,1.00
2018-04-19T06:43:20.319Z,3.00
2018-04-19T06:44:20.090Z,3.00
2018-04-19T06:45:20.380Z,4.00
2018-04-19T06:46:20.152Z,6.00
2018-04-19T06:47:20.147Z,2.00
2018-04-19T06:48:20.163Z,14.00
2018-04-19T06:49:19.209Z,4.00
2018-04-19T06:50:41.662Z,3.00
2018-04-19T06:51:23.142Z,4.00
2018-04-19T06:52:23.125Z,2.00
2018-04-19T06:53:20.225Z,2.00
2018-04-19T06:54:55.978Z,5.00
2018-04-19T06:55:56.049Z,4.00
2018-04-19T06:56:56.046Z,2.00
2018-04-19T06:57:56.035Z,4.00
2018-04-19T06:58:56.014Z,3.00
2018-04-19T06:59:55.997Z,4.00
2018-04-19T07:00:55.971Z,3.00
2018-04-19T07:01:56.020Z,5.00
2018-04-19T07:02:56.107Z,3.00
2018-04-19T07:03:55.987Z,4.00
2018-04-19T07:04:56.091Z,4.00
2018-04-19T07:05:55.956Z,3.00
2018-04-19T07:06:56.022Z,3.00
2018-04-19T07:07:56.008Z,2.00
2018-04-19T07:08:55.990Z,1.00
2018-04-19T07:09:56.070Z,3.00
2018-04-19T07:10:56.054Z,2.00
2018-04-19T07:11:56.042Z,2.00
2018-04-19T07:12:56.044Z,3.00
2018-04-19T07:13:56.029Z,3.00
2018-04-19T07:14:56.002Z,1.00
2018-04-19T07:15:56.105Z,1.00
2018-04-19T07:16:55.999Z,2.00
2018-04-19T07:17:55.989Z,3.00
2018-04-19T07:18:56.062Z,2.00
2018-04-19T07:19:56.290Z,1.00
2018-04-19T07:20:55.998Z,0.00
2018-04-19T07:21:56.070Z,0.00
2018-04-19T07:22:56.054Z,1.00
2018-04-19T07:23:56.030Z,1.00
2018-04-19T07:24:56.006Z,3.00
2018-04-19T07:26:33.095Z,9.00
2018-04-19T07:27:33.195Z,5.00
2018-04-19T07:28:33.166Z,4.00
2018-04-19T07:29:33.141Z,2.00
2018-04-19T07:30:36.261Z,4.00
2018-04-19T07:31:36.131Z,1.00
2018-04-19T07:32:33.240Z,1.00
2018-04-19T07:33:33.114Z,1.00
2018-04-19T07:34:33.208Z,4.00
2018-04-19T07:35:33.186Z,2.00
2018-04-19T07:36:33.094Z,4.00
2018-04-19T07:37:33.073Z,4.00
2018-04-19T07:38:33.118Z,5.00
2018-04-19T07:39:33.119Z,2.00
2018-04-19T07:40:33.102Z,4.00
2018-04-19T07:41:33.074Z,4.00
2018-04-19T07:42:33.045Z,3.00
2018-04-19T07:43:33.139Z,5.00
2018-04-19T07:44:33.127Z,4.00
2018-04-19T07:45:36.119Z,3.00
2018-04-19T07:46:33.096Z,4.00
2018-04-19T07:47:36.072Z,2.00
2018-04-19T07:48:33.151Z,4.00
2018-04-19T07:49:33.116Z,3.00
2018-04-19T07:50:33.115Z,4.00
2018-04-19T07:51:33.347Z,3.00
2018-04-19T07:52:33.143Z,3.00
2018-04-19T07:53:33.109Z,4.00
2018-04-19T07:54:33.084Z,3.00
2018-04-19T07:55:33.122Z,8.00
2018-04-19T07:56:33.120Z,4.00
2018-04-19T07:57:33.096Z,4.00
2018-04-19T07:58:33.140Z,2.00
2018-04-19T07:59:33.179Z,4.00
2018-04-19T08:00:33.062Z,3.00
2018-04-19T08:01:33.129Z,1.00
2018-04-19T08:02:33.108Z,4.00
2018-04-19T08:03:33.088Z,3.00
2018-04-19T08:04:33.060Z,3.00
2018-04-19T08:05:36.061Z,3.00
2018-04-19T08:06:33.508Z,4.00
2018-04-19T08:07:33.088Z,5.00
2018-04-19T08:08:33.063Z,3.00
2018-04-19T08:09:33.125Z,5.00
2018-04-19T08:10:33.105Z,3.00
2018-04-19T08:11:33.096Z,6.00
2018-04-19T08:12:33.081Z,5.00
2018-04-19T08:13:33.064Z,5.00
2018-04-19T08:14:33.062Z,5.00
2018-04-19T08:15:33.146Z,4.00
2018-04-19T08:16:33.113Z,2.00
2018-04-19T08:17:33.178Z,3.00
2018-04-19T08:18:33.147Z,4.00
2018-04-19T08:19:33.134Z,5.00
2018-04-19T08:20:33.106Z,6.00
2018-04-19T08:21:33.098Z,5.00
2018-04-19T08:22:33.074Z,4.00
2018-04-19T08:23:33.137Z,5.00
2018-04-19T08:24:33.384Z,4.00
2018-04-19T08:25:32.379Z,3.00
2018-04-19T08:26:33.142Z,5.00
2018-04-19T08:27:33.115Z,3.00
2018-04-19T08:28:54.804Z,0.00
2018-04-19T08:29:33.205Z,2.00
2018-04-19T08:30:33.078Z,4.00
2018-04-19T08:31:36.154Z,2.00
2018-04-19T08:32:36.217Z,5.00
2018-04-19T08:33:33.142Z,9.00
2018-04-19T08:34:36.235Z,5.00
2018-04-19T08:35:33.220Z,3.00
2018-04-19T08:36:33.116Z,4.00
2018-04-19T08:38:03.949Z,1.00
2018-04-19T08:38:35.036Z,1.00
2018-04-19T08:39:35.041Z,3.00
2018-04-19T08:40:56.854Z,2.00
2018-04-19T08:41:33.927Z,2.00
2018-04-19T08:42:34.084Z,2.00
2018-04-19T08:43:33.954Z,2.00
2018-04-19T08:44:34.085Z,2.00
2018-04-19T08:45:34.122Z,2.00
2018-04-19T08:46:33.901Z,7.00
2018-04-19T08:47:34.102Z,1.00
2018-04-19T08:48:33.975Z,4.00
2018-04-19T08:49:34.058Z,4.00
2018-04-19T08:50:34.014Z,3.00
2018-04-19T08:51:33.979Z,3.00
2018-04-19T08:52:34.091Z,7.00
2018-04-19T08:53:34.038Z,5.00
2018-04-19T08:54:34.015Z,2.00
2018-04-19T08:55:34.113Z,4.00
2018-04-19T08:56:36.973Z,7.00
2018-04-19T08:57:37.147Z,2.00
2018-04-19T08:58:37.023Z,6.00
2018-04-19T08:59:34.082Z,4.00
2018-04-19T09:00:37.453Z,6.00
2018-04-19T09:01:33.930Z,3.00
2018-04-19T09:02:33.918Z,3.00
2018-04-19T09:03:34.067Z,3.00
2018-04-19T09:04:33.934Z,4.00
2018-04-19T09:05:33.905Z,4.00
2018-04-19T09:06:34.074Z,4.00
2018-04-19T09:07:33.978Z,1.00
2018-04-19T09:08:33.960Z,4.00
2018-04-19T09:09:34.302Z,4.00
2018-04-19T09:10:33.995Z,3.00
2018-04-19T09:11:33.991Z,2.00
2018-04-19T09:12:34.001Z,5.00
2018-04-19T09:13:34.023Z,5.00
2018-04-19T09:14:34.077Z,4.00
2018-04-19T09:15:36.935Z,4.00
2018-04-19T09:16:34.014Z,6.00
2018-04-19T09:18:39.563Z,3.00
2018-04-19T09:19:34.436Z,3.00
2018-04-19T09:20:44.597Z,2.00
2018-04-19T09:21:35.392Z,3.00
2018-04-19T09:22:35.564Z,5.00
2018-04-19T09:23:35.169Z,5.00
2018-04-19T09:24:35.192Z,4.00
2018-04-19T09:26:13.095Z,4.00
2018-04-19T09:27:13.006Z,4.00
2018-04-19T09:28:13.030Z,2.00
2018-04-19T09:29:13.041Z,0.00
2018-04-19T09:30:13.021Z,3.00
2018-04-19T09:31:12.996Z,3.00
2018-04-19T09:32:13.062Z,8.00
2018-04-19T09:33:13.062Z,2.00
2018-04-19T09:34:13.083Z,2.00
2018-04-19T09:35:13.066Z,1.00
2018-04-19T09:36:16.066Z,4.00
2018-04-19T09:37:16.042Z,7.00
2018-04-19T09:38:13.869Z,5.00
2018-04-19T09:39:17.207Z,3.00
2018-04-19T09:40:16.824Z,5.00
2018-04-19T09:41:16.221Z,5.00
2018-04-19T09:42:13.569Z,17.00
2018-04-19T09:43:13.533Z,7.00
2018-04-19T09:44:13.362Z,6.00
2018-04-19T09:45:13.139Z,6.00
2018-04-19T09:46:16.063Z,4.00
2018-04-19T09:47:13.052Z,4.00
2018-04-19T09:48:16.187Z,5.00
2018-04-19T09:49:13.133Z,5.00
2018-04-19T09:50:13.026Z,6.00
2018-04-19T09:51:13.001Z,8.00
2018-04-19T09:52:12.988Z,9.00
2018-04-19T09:53:13.065Z,6.00
2018-04-19T09:54:13.224Z,4.00
2018-04-19T09:55:13.389Z,6.00
2018-04-19T09:56:13.064Z,6.00
2018-04-19T09:57:13.159Z,7.00
2018-04-19T09:58:13.048Z,8.00
2018-04-19T09:59:13.052Z,6.00
2018-04-19T10:00:13.041Z,10.00
2018-04-19T10:01:13.029Z,11.00
2018-04-19T10:02:13.037Z,11.00
2018-04-19T10:03:13.054Z,8.00
2018-04-19T10:04:13.083Z,8.00
2018-04-19T10:05:13.082Z,4.00
2018-04-19T10:06:13.065Z,6.00
2018-04-19T10:07:13.033Z,10.00
2018-04-19T10:08:12.999Z,12.00
2018-04-19T10:09:13.193Z,12.00
2018-04-19T10:10:13.075Z,8.00
2018-04-19T10:11:13.041Z,19.00
2018-04-19T10:12:13.139Z,10.00
2018-04-19T10:13:13.033Z,12.00
2018-04-19T10:14:13.039Z,15.00
2018-04-19T10:15:14.522Z,28.00
2018-04-19T10:16:13.093Z,12.00
2018-04-19T10:17:13.073Z,11.00
2018-04-19T10:18:13.047Z,9.00
2018-04-19T10:19:13.033Z,7.00
2018-04-19T10:20:13.010Z,8.00
2018-04-19T10:21:13.108Z,13.00
2018-04-19T10:23:21.326Z,6.00
2018-04-19T10:24:13.814Z,10.00
2018-04-19T10:25:12.569Z,8.00
2018-04-19T10:26:16.762Z,7.00
2018-04-19T10:27:13.729Z,7.00
2018-04-19T10:28:13.970Z,6.00
2018-04-19T10:29:13.863Z,9.00
2018-04-19T10:30:13.748Z,8.00
2018-04-19T10:31:13.850Z,8.00
2018-04-19T10:32:13.794Z,9.00
2018-04-19T10:33:14.040Z,8.00
2018-04-19T10:34:13.811Z,7.00
2018-04-19T10:35:13.786Z,7.00
2018-04-19T10:36:13.770Z,18.00
2018-04-19T10:37:13.865Z,12.00
2018-04-19T10:38:13.766Z,8.00
2018-04-19T10:39:13.747Z,5.00
2018-04-19T10:40:13.741Z,6.00
2018-04-19T10:41:16.927Z,23.00
2018-04-19T10:42:13.806Z,8.00
2018-04-19T10:43:16.783Z,5.00
2018-04-19T10:44:13.784Z,5.00
2018-04-19T10:45:13.903Z,11.00
2018-04-19T10:46:13.827Z,5.00
2018-04-19T10:47:13.809Z,6.00
2018-04-19T10:48:13.818Z,7.00
2018-04-19T10:49:13.855Z,3.00
2018-04-19T10:50:16.840Z,7.00
2018-04-19T10:51:13.891Z,6.00
2018-04-19T10:52:13.946Z,5.00
2018-04-19T10:53:16.741Z,5.00
2018-04-19T10:54:16.816Z,9.00
2018-04-19T10:55:16.789Z,10.00
2018-04-19T10:56:13.838Z,6.00
2018-04-19T10:57:16.854Z,9.00
2018-04-19T10:58:13.768Z,6.00
2018-04-19T10:59:13.850Z,19.00
2018-04-19T11:00:13.817Z,15.00
2018-04-19T11:01:13.802Z,13.00
2018-04-19T11:02:13.783Z,5.00
2018-04-19T11:03:13.783Z,14.00
2018-04-19T11:04:50.767Z,13.00
2018-04-19T11:05:51.265Z,10.00
2018-04-19T11:06:50.775Z,7.00
2018-04-19T11:07:50.854Z,12.00
2018-04-19T11:08:50.819Z,11.00
2018-04-19T11:09:50.819Z,17.00
2018-04-19T11:10:50.824Z,12.00
2018-04-19T11:11:50.802Z,12.00
2018-04-19T11:12:50.771Z,6.00
2018-04-19T11:13:50.853Z,14.00
2018-04-19T11:14:50.940Z,9.00
2018-04-19T11:15:50.965Z,26.00
2018-04-19T11:16:50.950Z,10.00
2018-04-19T11:17:50.837Z,11.00
2018-04-19T11:18:50.819Z,9.00
2018-04-19T11:19:50.802Z,8.00
2018-04-19T11:20:50.789Z,13.00
2018-04-19T11:21:50.875Z,9.00
2018-04-19T11:22:52.980Z,19.00
2018-04-19T11:23:50.767Z,9.00
2018-04-19T11:24:50.929Z,7.00
2018-04-19T11:25:50.798Z,11.00
2018-04-19T11:26:50.778Z,7.00
2018-04-19T11:27:50.950Z,13.00
2018-04-19T11:28:50.954Z,11.00
2018-04-19T11:29:50.822Z,12.00
2018-04-19T11:30:50.902Z,12.00
2018-04-19T11:31:50.773Z,12.00
2018-04-19T11:32:53.791Z,9.00
2018-04-19T11:33:51.226Z,6.00
2018-04-19T11:34:50.810Z,7.00
2018-04-19T11:35:50.815Z,6.00
2018-04-19T11:36:50.812Z,4.00
2018-04-19T11:37:50.806Z,2.00
2018-04-19T11:38:50.793Z,5.00
2018-04-19T11:39:50.872Z,7.00
2018-04-19T11:40:50.843Z,8.00
2018-04-19T11:41:50.815Z,12.00
2018-04-19T11:42:50.806Z,12.00
2018-04-19T11:43:50.798Z,13.00
2018-04-19T11:44:50.867Z,14.00
2018-04-19T11:45:50.837Z,7.00
2018-04-19T11:46:51.014Z,25.00
2018-04-19T11:47:50.788Z,7.00
2018-04-19T11:48:50.994Z,12.00
2018-04-19T11:49:50.866Z,10.00
2018-04-19T11:50:50.851Z,9.00
2018-04-19T11:51:50.827Z,6.00
2018-04-19T11:52:50.819Z,12.00
2018-04-19T11:53:50.795Z,6.00
2018-04-19T11:54:50.978Z,13.00
2018-04-19T11:55:50.962Z,9.00
2018-04-19T11:56:50.932Z,7.00
2018-04-19T11:57:50.811Z,7.00
2018-04-19T11:58:50.794Z,7.00
2018-04-19T11:59:50.879Z,8.00
2018-04-19T12:00:50.849Z,10.00
2018-04-19T12:01:50.804Z,14.00
2018-04-19T12:02:50.835Z,7.00
2018-04-19T12:03:50.240Z,6.00
2018-04-19T12:04:50.824Z,3.00
2018-04-19T12:05:50.809Z,3.00
2018-04-19T12:07:12.585Z,1.00
2018-04-19T12:07:50.910Z,5.00
2018-04-19T12:08:50.890Z,8.00
2018-04-19T12:09:50.874Z,7.00
2018-04-19T12:10:50.887Z,6.00
2018-04-19T12:11:50.872Z,9.00
2018-04-19T12:12:50.851Z,5.00
2018-04-19T12:13:53.817Z,9.00
2018-04-19T12:14:50.920Z,5.00
2018-04-19T12:15:51.031Z,6.00
2018-04-19T12:16:50.823Z,10.00
2018-04-19T12:17:50.804Z,9.00
2018-04-19T12:18:51.058Z,3.00
2018-04-19T12:19:50.849Z,8.00
2018-04-19T12:20:50.954Z,20.00
2018-04-19T12:21:50.851Z,8.00
2018-04-19T12:22:50.858Z,17.00
2018-04-19T12:23:50.863Z,4.00
2018-04-19T12:24:50.864Z,15.00
2018-04-19T12:25:50.851Z,5.00
2018-04-19T12:26:50.830Z,6.00
2018-04-19T12:27:50.919Z,12.00
2018-04-19T12:28:51.051Z,9.00
2018-04-19T12:29:50.840Z,2.00
2018-04-19T12:30:50.829Z,1.00
2018-04-19T12:31:50.907Z,3.00
2018-04-19T12:32:50.898Z,4.00
2018-04-19T12:33:50.926Z,2.00
2018-04-19T12:34:50.977Z,1.00
2018-04-19T12:35:50.849Z,0.00
2018-04-19T12:36:50.837Z,3.00
2018-04-19T12:37:50.827Z,2.00
2018-04-19T12:38:50.826Z,6.00
2018-04-19T12:39:50.906Z,6.00
2018-04-19T12:40:51.001Z,6.00
2018-04-19T12:41:50.882Z,6.00
2018-04-19T12:42:50.979Z,8.00
2018-04-19T12:43:50.980Z,4.00
2018-04-19T12:44:50.884Z,7.00
2018-04-19T12:46:28.704Z,7.00
2018-04-19T12:47:28.761Z,5.00
2018-04-19T12:48:28.738Z,5.00
2018-04-19T12:49:28.725Z,6.00
2018-04-19T12:50:28.717Z,2.00
2018-04-19T12:51:28.794Z,0.00
2018-04-19T12:52:28.783Z,0.00
2018-04-19T12:54:05.720Z,0.00
2018-04-19T12:55:08.723Z,0.00
2018-04-19T12:56:05.809Z,4.00
2018-04-19T12:57:05.793Z,4.00
2018-04-19T12:58:05.757Z,1.00
2018-04-19T12:59:05.755Z,7.00
2018-04-19T13:00:05.882Z,14.00
2018-04-19T13:01:05.765Z,4.00
2018-04-19T13:02:05.778Z,1.00
2018-04-19T13:03:05.910Z,1.00
2018-04-19T13:04:05.864Z,0.00
2018-04-19T13:05:05.741Z,0.00
2018-04-19T13:06:05.822Z,0.00
2018-04-19T13:07:05.801Z,0.00
2018-04-19T13:08:05.896Z,0.00
2018-04-19T13:09:05.773Z,0.00
2018-04-19T13:10:05.750Z,0.00
2018-04-19T13:11:05.728Z,0.00
2018-04-19T13:12:05.804Z,0.00
2018-04-19T13:13:05.771Z,0.00
2018-04-19T13:14:08.767Z,0.00
2018-04-19T13:15:05.736Z,0.00
2018-04-19T13:16:08.955Z,0.00
2018-04-19T13:17:05.761Z,0.00
2018-04-19T13:18:05.782Z,0.00
2018-04-19T13:19:05.763Z,0.00
2018-04-19T13:20:05.766Z,0.00
2018-04-19T13:21:05.733Z,0.00
2018-04-19T13:22:05.915Z,0.00
2018-04-19T13:23:05.797Z,2.00
2018-04-19T13:24:05.780Z,1.00
2018-04-19T13:25:05.750Z,1.00
2018-04-19T13:26:05.743Z,1.00
2018-04-19T13:27:06.048Z,0.00
2018-04-19T13:28:05.745Z,0.00